Fort Morgan, CO

7:50 PM MDT on September 23, 2014 (GMT -0600)
Fort Morgan | Change Station
CLOSE
Current Station
Personal Weather Station
Location: Fort Morgan, CO
Elevation: 4327 ft
Nearby Weather Stations

Elev 4327 ft 40.24 °N, 103.79 °W | Updated 11 seconds ago

Partly Cloudy
Partly Cloudy
70.0 °F
Feels Like 70.0 °F
N
0.7
Wind Variable Wind from SW
Gusts 2.2 mph

Today
High -- | Low -- °F
--% Chance of Precip.
Yesterday
High -- | Low -- °F
Precip. -- in
6:43 AM 6:50 PM
Waning Crescent, 0% visible
Pressure 30.10 in
Visibility 10.0 miles
Clouds Clear
Dew Point 49 °F
Humidity 47%
Rainfall 0.00 in
Snow Depth 87 in , 0 in , 0 in
UV 0.0 out of 12
Pollen 6.10 out of 12
Air Quality Not available.
Flu Activity Not available.
METAR KFMM 240135Z AUTO 31005KT 10SM CLR 19/05 A3010 RMK AO2 T01900046

More Conditions Fewer Conditions

Pressure 30.10 in
Visibility 10.0 miles
Clouds Clear
Dew Point 49 °F
Humidity 47%
Rainfall 0.00 in
Snow Depth 87 in , 0 in , 0 in
UV 0.0 out of 12
Pollen 6.10 out of 12
Air Quality Not available.
Flu Activity Not available.
METAR KFMM 240135Z AUTO 31005KT 10SM CLR 19/05 A3010 RMK AO2 T01900046

More Conditions Fewer Conditions

10-Day Weather Forecast

Almanac

Astronomy

Sep. 23, 2014 Rise Set
Actual Time 6:43 AM MDT 6:50 PM MDT
Civil Twilight 6:16 AM MDT 7:17 PM MDT
Nautical Twilight 5:44 AM MDT 7:49 PM MDT
Astronomical Twilight 5:12 AM MDT 8:21 PM MDT
Moon 6:10 AM MDT (9/23) 6:30 PM MDT (9/23)
Length of Visible Light 13h 00m
Length of Day
12h 06m
Tomorrow will be 2m 39s shorter.
Waning Crescent, 0% of the Moon is Illuminated
Today
Waning Crescent
Sep 24
New
Oct 1
First Quarter
Oct 8
Full
Oct 15
Last Quarter

Today's Extremes

State Highs State Lows

Community

WunderPhotos

Upload Photos

1,755,844 photos uploaded!

Nearby

Snow Depth

Station Depth Elevation
Vail Mountain 87 in 10300 ft
Apishapa 0 in 10000 ft
Medano Pass 0 in 9620 ft
Columbine 0 in 9160 ft
Deadman Hill 0 in 10220 ft

Earthquake Activity

City Distance Mag. Time & Date
No recent earthquake activity has been reported nearby.
Minimum magnitude displayed is 2.5.

Coastal Water Temperatures

Place Temperature
No Stations Reporting

Nearby Weather Stations